Packwood, WA (98361)

11:34 PM PST on January 18, 2017 (GMT -0800)
MWPS45 | | Change Station

Elev 4467 ft 46.64 °N, 121.39 °W | Updated 2 hours ago

Overcast
Overcast
32.0 °F
Feels Like 32 °F
N
-
Wind Variable Wind from North

Today
High -- | Low -- °F
--% Chance of Precip.
Yesterday
High -- | Low -- °F
Precip. -- in
Pressure 29.39 in
Visibility 10.0 miles
Clouds
Windchill 32 °F
Dew Point 30 °F
Humidity 91%
Rainfall 0.32 in
Snow Depth Not available.
7:44 AM 4:50 PM
Waning Gibbous, 56% visible
METAR KPLU 190715Z AUTO VRB04KT 10SM -DZ 07/07 A2939 RMK AO2
Pressure 29.39 in
Visibility 10.0 miles
Clouds
Windchill 32 °F
Dew Point 30 °F
Humidity 91%
Rainfall 0.32 in
Snow Depth Not available.
7:44 AM 4:50 PM
Waning Gibbous, 56% visible
METAR KPLU 190715Z AUTO VRB04KT 10SM -DZ 07/07 A2939 RMK AO2

Get Your Daily Forecast Email!

Thanks for signing up!

Be on the lookout for a verification email in your inbox.

You'll start receiving the daily forecast at 8 AM.

×

10-Day Weather Forecast

Almanac

Astronomy

Jan. 18, 2017 Rise Set
Actual Time
Civil Twilight
Nautical Twilight
Astronomical Twilight
Moon
Length of Visible Light
Length of Day
Tomorrow will be .
, % of the Moon is Illuminated

Today's Extremes

State Highs State Lows

Community

WunderPhotos

Upload Photos

1,962,540 photos uploaded!

WunderBlog® & News

Nearby

Air Quality

  Air Quality AQ Index Pollutant
Not available.

Snow Depth

Station Depth Elevation

Earthquake Activity

City Distance Mag. Time & Date
Minimum magnitude displayed is 2.5.

Coastal Water Temperatures

Place Temperature

Stations

Nearby Weather Stations

Station Location Temp. Windchill Dew Point Humidity Wind Precip. Elev Updated Type
                   

Watches & Warnings

There are currently no watches in effect.